sensor_id;sensor_type;location;lat;lon;timestamp;P1;durP1;ratioP1;P2;durP2;ratioP2
934;SDS011;454;53.254;10.400;2022-10-16T04:02:36;0.80;;;0.55;;
934;SDS011;454;53.254;10.400;2022-10-16T04:05:03;1.10;;;1.10;;
934;SDS011;454;53.254;10.400;2022-10-16T04:07:30;4.05;;;0.65;;
934;SDS011;454;53.254;10.400;2022-10-16T04:09:57;0.70;;;0.70;;
934;SDS011;454;53.254;10.400;2022-10-16T04:12:24;0.70;;;0.70;;
934;SDS011;454;53.254;10.400;2022-10-16T04:14:51;0.80;;;0.80;;
934;SDS011;454;53.254;10.400;2022-10-16T04:17:17;1.27;;;0.82;;
934;SDS011;454;53.254;10.400;2022-10-16T04:19:45;0.98;;;0.98;;
934;SDS011;454;53.254;10.400;2022-10-16T04:22:12;0.43;;;0.43;;
934;SDS011;454;53.254;10.400;2022-10-16T04:24:39;0.90;;;0.90;;
934;SDS011;454;53.254;10.400;2022-10-16T04:27:06;1.15;;;0.80;;
934;SDS011;454;53.254;10.400;2022-10-16T04:29:32;1.45;;;0.80;;
934;SDS011;454;53.254;10.400;2022-10-16T04:31:59;0.60;;;0.60;;
934;SDS011;454;53.254;10.400;2022-10-16T04:34:26;0.80;;;0.80;;
934;SDS011;454;53.254;10.400;2022-10-16T04:36:54;2.78;;;0.80;;
934;SDS011;454;53.254;10.400;2022-10-16T04:39:20;2.35;;;0.70;;
934;SDS011;454;53.254;10.400;2022-10-16T04:41:47;1.42;;;1.33;;
934;SDS011;454;53.254;10.400;2022-10-16T04:44:14;2.58;;;0.70;;
934;SDS011;454;53.254;10.400;2022-10-16T04:46:41;3.30;;;0.80;;
934;SDS011;454;53.254;10.400;2022-10-16T04:49:07;0.60;;;0.60;;
934;SDS011;454;53.254;10.400;2022-10-16T04:51:34;0.85;;;0.85;;
934;SDS011;454;53.254;10.400;2022-10-16T04:54:02;0.93;;;0.93;;
934;SDS011;454;53.254;10.400;2022-10-16T04:56:29;1.38;;;1.13;;
934;SDS011;454;53.254;10.400;2022-10-16T04:58:55;1.10;;;1.10;;
934;SDS011;454;53.254;10.400;2022-10-16T05:01:22;0.73;;;0.73;;
934;SDS011;454;53.254;10.400;2022-10-16T05:03:49;0.67;;;0.67;;
934;SDS011;454;53.254;10.400;2022-10-16T05:06:16;0.50;;;0.50;;
934;SDS011;454;53.254;10.400;2022-10-16T05:08:42;1.77;;;1.67;;
934;SDS011;454;53.254;10.400;2022-10-16T05:11:10;0.87;;;0.80;;
934;SDS011;454;53.254;10.400;2022-10-16T05:13:37;1.27;;;1.27;;
934;SDS011;454;53.254;10.400;2022-10-16T05:16:04;0.90;;;0.90;;
934;SDS011;454;53.254;10.400;2022-10-16T05:18:31;1.23;;;0.80;;
934;SDS011;454;53.254;10.400;2022-10-16T05:20:57;1.63;;;1.23;;
934;SDS011;454;53.254;10.400;2022-10-16T05:23:24;1.70;;;1.60;;
934;SDS011;454;53.254;10.400;2022-10-16T05:25:54;0.83;;;0.83;;
934;SDS011;454;53.254;10.400;2022-10-16T05:28:24;0.70;;;0.70;;
934;SDS011;454;53.254;10.400;2022-10-16T05:30:51;0.70;;;0.70;;
934;SDS011;454;53.254;10.400;2022-10-16T05:33:19;1.73;;;1.52;;
934;SDS011;454;53.254;10.400;2022-10-16T05:35:46;9.48;;;1.25;;
934;SDS011;454;53.254;10.400;2022-10-16T05:38:13;0.80;;;0.80;;
934;SDS011;454;53.254;10.400;2022-10-16T05:40:39;0.80;;;0.80;;
934;SDS011;454;53.254;10.400;2022-10-16T05:43:06;0.98;;;0.98;;
934;SDS011;454;53.254;10.400;2022-10-16T05:45:34;1.10;;;0.67;;
934;SDS011;454;53.254;10.400;2022-10-16T05:48:01;1.42;;;1.42;;
934;SDS011;454;53.254;10.400;2022-10-16T05:50:27;0.70;;;0.70;;
934;SDS011;454;53.254;10.400;2022-10-16T05:52:54;0.60;;;0.60;;
934;SDS011;454;53.254;10.400;2022-10-16T05:55:21;0.95;;;0.95;;
934;SDS011;454;53.254;10.400;2022-10-16T05:57:47;1.65;;;0.73;;
934;SDS011;454;53.254;10.400;2022-10-16T06:00:14;1.00;;;1.00;;
934;SDS011;454;53.254;10.400;2022-10-16T06:02:42;1.02;;;1.02;;
934;SDS011;454;53.254;10.400;2022-10-16T06:05:09;0.77;;;0.77;;
934;SDS011;454;53.254;10.400;2022-10-16T06:07:35;1.92;;;1.58;;
934;SDS011;454;53.254;10.400;2022-10-16T06:10:02;1.92;;;0.98;;
934;SDS011;454;53.254;10.400;2022-10-16T06:12:30;1.20;;;1.17;;
934;SDS011;454;53.254;10.400;2022-10-16T06:14:57;0.90;;;0.90;;
934;SDS011;454;53.254;10.400;2022-10-16T06:17:24;1.20;;;1.20;;
934;SDS011;454;53.254;10.400;2022-10-16T06:19:52;1.48;;;0.98;;
934;SDS011;454;53.254;10.400;2022-10-16T06:22:18;1.10;;;1.10;;
934;SDS011;454;53.254;10.400;2022-10-16T06:24:45;1.08;;;1.05;;
934;SDS011;454;53.254;10.400;2022-10-16T06:27:12;1.73;;;0.60;;
934;SDS011;454;53.254;10.400;2022-10-16T06:29:39;1.40;;;1.40;;
934;SDS011;454;53.254;10.400;2022-10-16T06:32:05;0.73;;;0.73;;
934;SDS011;454;53.254;10.400;2022-10-16T06:34:32;4.22;;;0.85;;
934;SDS011;454;53.254;10.400;2022-10-16T06:37:00;0.90;;;0.88;;
934;SDS011;454;53.254;10.400;2022-10-16T06:39:27;1.08;;;1.08;;
934;SDS011;454;53.254;10.400;2022-10-16T06:41:53;0.85;;;0.85;;
934;SDS011;454;53.254;10.400;2022-10-16T06:44:20;0.88;;;0.88;;
934;SDS011;454;53.254;10.400;2022-10-16T06:46:47;1.23;;;1.00;;
934;SDS011;454;53.254;10.400;2022-10-16T06:49:13;0.90;;;0.87;;
934;SDS011;454;53.254;10.400;2022-10-16T06:51:46;0.73;;;0.73;;
934;SDS011;454;53.254;10.400;2022-10-16T06:54:14;2.33;;;1.10;;
934;SDS011;454;53.254;10.400;2022-10-16T06:56:41;2.30;;;1.27;;
934;SDS011;454;53.254;10.400;2022-10-16T06:59:07;0.87;;;0.87;;
934;SDS011;454;53.254;10.400;2022-10-16T07:01:34;0.87;;;0.87;;
934;SDS011;454;53.254;10.400;2022-10-16T07:04:01;1.03;;;1.00;;
934;SDS011;454;53.254;10.400;2022-10-16T07:06:30;0.47;;;0.47;;
934;SDS011;454;53.254;10.400;2022-10-16T07:09:00;0.70;;;0.70;;
934;SDS011;454;53.254;10.400;2022-10-16T07:11:29;2.42;;;1.17;;
934;SDS011;454;53.254;10.400;2022-10-16T07:13:56;0.90;;;0.90;;
934;SDS011;454;53.254;10.400;2022-10-16T07:16:23;1.03;;;0.97;;
934;SDS011;454;53.254;10.400;2022-10-16T07:18:51;6.43;;;1.58;;
934;SDS011;454;53.254;10.400;2022-10-16T07:21:23;0.90;;;0.90;;
934;SDS011;454;53.254;10.400;2022-10-16T07:23:51;1.40;;;1.30;;
934;SDS011;454;53.254;10.400;2022-10-16T07:26:18;10.00;;;1.90;;
934;SDS011;454;53.254;10.400;2022-10-16T07:28:47;1.90;;;1.80;;
934;SDS011;454;53.254;10.400;2022-10-16T07:31:14;1.47;;;1.43;;
934;SDS011;454;53.254;10.400;2022-10-16T07:33:42;1.47;;;1.37;;
934;SDS011;454;53.254;10.400;2022-10-16T07:36:10;1.50;;;1.50;;
934;SDS011;454;53.254;10.400;2022-10-16T07:38:38;1.10;;;1.10;;
934;SDS011;454;53.254;10.400;2022-10-16T07:41:05;4.03;;;1.53;;
934;SDS011;454;53.254;10.400;2022-10-16T07:43:33;1.10;;;1.10;;
934;SDS011;454;53.254;10.400;2022-10-16T07:46:01;1.10;;;1.10;;
934;SDS011;454;53.254;10.400;2022-10-16T07:48:29;1.00;;;0.90;;
934;SDS011;454;53.254;10.400;2022-10-16T07:50:57;1.93;;;1.83;;
934;SDS011;454;53.254;10.400;2022-10-16T07:53:24;8.87;;;1.63;;
934;SDS011;454;53.254;10.400;2022-10-16T07:55:51;0.97;;;0.97;;
934;SDS011;454;53.254;10.400;2022-10-16T07:58:18;2.30;;;1.10;;
934;SDS011;454;53.254;10.400;2022-10-16T08:00:44;0.87;;;0.87;;
934;SDS011;454;53.254;10.400;2022-10-16T08:03:12;1.63;;;1.63;;
934;SDS011;454;53.254;10.400;2022-10-16T08:05:39;1.50;;;1.40;;
934;SDS011;454;53.254;10.400;2022-10-16T08:08:06;0.80;;;0.80;;
934;SDS011;454;53.254;10.400;2022-10-16T08:10:37;1.00;;;1.00;;
934;SDS011;454;53.254;10.400;2022-10-16T08:13:04;0.80;;;0.80;;
934;SDS011;454;53.254;10.400;2022-10-16T08:15:30;0.57;;;0.57;;
934;SDS011;454;53.254;10.400;2022-10-16T08:17:57;1.10;;;1.10;;
934;SDS011;454;53.254;10.400;2022-10-16T08:20:27;1.03;;;1.03;;
934;SDS011;454;53.254;10.400;2022-10-16T08:22:54;1.07;;;0.63;;
934;SDS011;454;53.254;10.400;2022-10-16T08:25:21;1.33;;;1.33;;
934;SDS011;454;53.254;10.400;2022-10-16T08:27:49;0.87;;;0.87;;
934;SDS011;454;53.254;10.400;2022-10-16T08:30:16;4.83;;;0.73;;
934;SDS011;454;53.254;10.400;2022-10-16T08:32:43;1.33;;;1.30;;
934;SDS011;454;53.254;10.400;2022-10-16T08:35:10;0.83;;;0.83;;
934;SDS011;454;53.254;10.400;2022-10-16T08:37:39;0.77;;;0.77;;
934;SDS011;454;53.254;10.400;2022-10-16T08:40:07;1.00;;;1.00;;
934;SDS011;454;53.254;10.400;2022-10-16T08:42:47;0.80;;;0.80;;
934;SDS011;454;53.254;10.400;2022-10-16T08:45:42;3.13;;;0.60;;
934;SDS011;454;53.254;10.400;2022-10-16T08:48:20;0.80;;;0.80;;
934;SDS011;454;53.254;10.400;2022-10-16T08:50:51;0.90;;;0.90;;
934;SDS011;454;53.254;10.400;2022-10-16T08:53:20;1.87;;;0.70;;
934;SDS011;454;53.254;10.400;2022-10-16T08:55:51;0.67;;;0.67;;
934;SDS011;454;53.254;10.400;2022-10-16T08:58:20;0.67;;;0.67;;
934;SDS011;454;53.254;10.400;2022-10-16T09:00:48;0.50;;;0.50;;
934;SDS011;454;53.254;10.400;2022-10-16T09:03:23;0.93;;;0.93;;
934;SDS011;454;53.254;10.400;2022-10-16T09:06:00;1.10;;;1.10;;
934;SDS011;454;53.254;10.400;2022-10-16T09:08:42;0.80;;;0.80;;
934;SDS011;454;53.254;10.400;2022-10-16T09:11:22;0.97;;;0.97;;
934;SDS011;454;53.254;10.400;2022-10-16T09:13:59;0.80;;;0.80;;
934;SDS011;454;53.254;10.400;2022-10-16T09:16:33;1.00;;;1.00;;
934;SDS011;454;53.254;10.400;2022-10-16T09:19:04;0.33;;;0.33;;
934;SDS011;454;53.254;10.400;2022-10-16T09:21:37;0.50;;;0.50;;
934;SDS011;454;53.254;10.400;2022-10-16T09:24:09;0.70;;;0.70;;
934;SDS011;454;53.254;10.400;2022-10-16T09:26:40;0.40;;;0.40;;
934;SDS011;454;53.254;10.400;2022-10-16T09:29:08;0.40;;;0.40;;
934;SDS011;454;53.254;10.400;2022-10-16T09:31:37;0.30;;;0.30;;
934;SDS011;454;53.254;10.400;2022-10-16T09:34:04;0.60;;;0.60;;
934;SDS011;454;53.254;10.400;2022-10-16T09:36:34;0.40;;;0.40;;
934;SDS011;454;53.254;10.400;2022-10-16T09:39:07;0.80;;;0.80;;
934;SDS011;454;53.254;10.400;2022-10-16T09:41:37;0.60;;;0.60;;
934;SDS011;454;53.254;10.400;2022-10-16T09:44:06;1.03;;;1.03;;
934;SDS011;454;53.254;10.400;2022-10-16T09:46:44;2.13;;;0.53;;
934;SDS011;454;53.254;10.400;2022-10-16T09:49:18;0.50;;;0.50;;
934;SDS011;454;53.254;10.400;2022-10-16T09:51:47;0.20;;;0.20;;
934;SDS011;454;53.254;10.400;2022-10-16T09:54:16;0.60;;;0.60;;
934;SDS011;454;53.254;10.400;2022-10-16T09:56:44;0.50;;;0.50;;
934;SDS011;454;53.254;10.400;2022-10-16T09:59:15;0.57;;;0.57;;
934;SDS011;454;53.254;10.400;2022-10-16T10:01:44;0.30;;;0.30;;
934;SDS011;454;53.254;10.400;2022-10-16T10:04:13;3.30;;;0.60;;
934;SDS011;454;53.254;10.400;2022-10-16T10:06:41;0.40;;;0.40;;
934;SDS011;454;53.254;10.400;2022-10-16T10:09:19;0.40;;;0.40;;
934;SDS011;454;53.254;10.400;2022-10-16T10:11:48;0.50;;;0.27;;
934;SDS011;454;53.254;10.400;2022-10-16T10:14:20;1.13;;;0.40;;
934;SDS011;454;53.254;10.400;2022-10-16T10:17:01;1.60;;;0.50;;
934;SDS011;454;53.254;10.400;2022-10-16T10:19:38;7.63;;;0.60;;
934;SDS011;454;53.254;10.400;2022-10-16T10:22:15;0.60;;;0.60;;
934;SDS011;454;53.254;10.400;2022-10-16T10:24:46;5.70;;;3.30;;
934;SDS011;454;53.254;10.400;2022-10-16T10:27:21;1.10;;;0.77;;
934;SDS011;454;53.254;10.400;2022-10-16T10:29:56;1.13;;;0.80;;
934;SDS011;454;53.254;10.400;2022-10-16T10:32:28;1.20;;;0.70;;
934;SDS011;454;53.254;10.400;2022-10-16T10:35:07;0.50;;;0.50;;
934;SDS011;454;53.254;10.400;2022-10-16T10:37:46;0.77;;;0.53;;
934;SDS011;454;53.254;10.400;2022-10-16T10:40:30;0.40;;;0.40;;
934;SDS011;454;53.254;10.400;2022-10-16T10:43:07;1.43;;;1.03;;
934;SDS011;454;53.254;10.400;2022-10-16T10:45:46;0.63;;;0.50;;
934;SDS011;454;53.254;10.400;2022-10-16T10:48:19;0.20;;;0.20;;
934;SDS011;454;53.254;10.400;2022-10-16T10:50:55;0.40;;;0.40;;
934;SDS011;454;53.254;10.400;2022-10-16T10:53:30;0.20;;;0.20;;
934;SDS011;454;53.254;10.400;2022-10-16T10:56:07;0.30;;;0.30;;
934;SDS011;454;53.254;10.400;2022-10-16T10:59:00;0.37;;;0.37;;
934;SDS011;454;53.254;10.400;2022-10-16T11:01:44;0.20;;;0.20;;
934;SDS011;454;53.254;10.400;2022-10-16T11:04:20;1.80;;;0.30;;
934;SDS011;454;53.254;10.400;2022-10-16T11:07:15;0.27;;;0.27;;
934;SDS011;454;53.254;10.400;2022-10-16T11:09:47;0.20;;;0.20;;
934;SDS011;454;53.254;10.400;2022-10-16T11:12:18;0.50;;;0.50;;
934;SDS011;454;53.254;10.400;2022-10-16T11:14:49;0.30;;;0.30;;
934;SDS011;454;53.254;10.400;2022-10-16T11:17:23;2.10;;;0.47;;
934;SDS011;454;53.254;10.400;2022-10-16T11:19:54;1.17;;;0.40;;
934;SDS011;454;53.254;10.400;2022-10-16T11:22:25;1.80;;;0.40;;
934;SDS011;454;53.254;10.400;2022-10-16T11:24:59;0.30;;;0.30;;
934;SDS011;454;53.254;10.400;2022-10-16T11:27:35;0.30;;;0.30;;
934;SDS011;454;53.254;10.400;2022-10-16T11:30:05;0.60;;;0.43;;
934;SDS011;454;53.254;10.400;2022-10-16T11:32:42;0.50;;;0.50;;
934;SDS011;454;53.254;10.400;2022-10-16T11:35:19;3.40;;;0.30;;
934;SDS011;454;53.254;10.400;2022-10-16T11:37:50;0.30;;;0.20;;
934;SDS011;454;53.254;10.400;2022-10-16T11:40:21;1.60;;;0.43;;
934;SDS011;454;53.254;10.400;2022-10-16T11:42:54;0.20;;;0.20;;
934;SDS011;454;53.254;10.400;2022-10-16T11:45:26;0.97;;;0.20;;
934;SDS011;454;53.254;10.400;2022-10-16T11:47:58;0.23;;;0.23;;
934;SDS011;454;53.254;10.400;2022-10-16T11:50:29;0.77;;;0.60;;
934;SDS011;454;53.254;10.400;2022-10-16T11:53:01;0.83;;;0.33;;
934;SDS011;454;53.254;10.400;2022-10-16T11:55:36;0.33;;;0.33;;
934;SDS011;454;53.254;10.400;2022-10-16T11:58:07;0.40;;;0.40;;
934;SDS011;454;53.254;10.400;2022-10-16T12:00:40;0.37;;;0.37;;
934;SDS011;454;53.254;10.400;2022-10-16T12:03:14;0.43;;;0.40;;
934;SDS011;454;53.254;10.400;2022-10-16T12:05:56;0.40;;;0.40;;
934;SDS011;454;53.254;10.400;2022-10-16T12:08:31;0.20;;;0.20;;
934;SDS011;454;53.254;10.400;2022-10-16T12:11:06;1.57;;;0.40;;
934;SDS011;454;53.254;10.400;2022-10-16T12:13:36;0.80;;;0.33;;
934;SDS011;454;53.254;10.400;2022-10-16T12:16:19;0.30;;;0.30;;
934;SDS011;454;53.254;10.400;2022-10-16T12:18:48;0.33;;;0.33;;
934;SDS011;454;53.254;10.400;2022-10-16T12:21:16;5.90;;;0.40;;
934;SDS011;454;53.254;10.400;2022-10-16T12:23:47;0.37;;;0.37;;
934;SDS011;454;53.254;10.400;2022-10-16T12:26:23;1.43;;;0.63;;
934;SDS011;454;53.254;10.400;2022-10-16T12:28:51;0.20;;;0.20;;
934;SDS011;454;53.254;10.400;2022-10-16T12:31:19;5.40;;;1.03;;
934;SDS011;454;53.254;10.400;2022-10-16T12:33:53;0.60;;;0.53;;
934;SDS011;454;53.254;10.400;2022-10-16T12:36:26;0.30;;;0.30;;
934;SDS011;454;53.254;10.400;2022-10-16T12:38:56;1.47;;;0.40;;
934;SDS011;454;53.254;10.400;2022-10-16T12:41:26;0.77;;;0.30;;
934;SDS011;454;53.254;10.400;2022-10-16T12:43:55;4.13;;;0.87;;
934;SDS011;454;53.254;10.400;2022-10-16T12:46:24;0.47;;;0.47;;
934;SDS011;454;53.254;10.400;2022-10-16T12:49:05;0.83;;;0.60;;
934;SDS011;454;53.254;10.400;2022-10-16T12:51:46;1.23;;;0.93;;
934;SDS011;454;53.254;10.400;2022-10-16T12:54:13;0.87;;;0.87;;
934;SDS011;454;53.254;10.400;2022-10-16T12:56:46;0.67;;;0.67;;
934;SDS011;454;53.254;10.400;2022-10-16T12:59:28;0.40;;;0.40;;
934;SDS011;454;53.254;10.400;2022-10-16T13:05:08;0.40;;;0.37;;
934;SDS011;454;53.254;10.400;2022-10-16T13:07:56;0.60;;;0.60;;
934;SDS011;454;53.254;10.400;2022-10-16T13:10:33;2.47;;;0.50;;
934;SDS011;454;53.254;10.400;2022-10-16T13:13:19;0.50;;;0.50;;
934;SDS011;454;53.254;10.400;2022-10-16T13:16:12;0.50;;;0.50;;
934;SDS011;454;53.254;10.400;2022-10-16T13:18:49;0.90;;;0.90;;
934;SDS011;454;53.254;10.400;2022-10-16T13:21:29;0.40;;;0.40;;
934;SDS011;454;53.254;10.400;2022-10-16T13:24:05;0.40;;;0.40;;
934;SDS011;454;53.254;10.400;2022-10-16T13:26:41;0.30;;;0.30;;
934;SDS011;454;53.254;10.400;2022-10-16T13:29:12;0.60;;;0.60;;
934;SDS011;454;53.254;10.400;2022-10-16T13:31:40;0.60;;;0.60;;
934;SDS011;454;53.254;10.400;2022-10-16T13:34:11;1.03;;;0.47;;
934;SDS011;454;53.254;10.400;2022-10-16T13:36:43;0.60;;;0.50;;
934;SDS011;454;53.254;10.400;2022-10-16T13:39:12;0.40;;;0.40;;
934;SDS011;454;53.254;10.400;2022-10-16T13:41:39;3.20;;;0.30;;
934;SDS011;454;53.254;10.400;2022-10-16T13:44:10;0.43;;;0.43;;
934;SDS011;454;53.254;10.400;2022-10-16T13:46:42;0.73;;;0.40;;
934;SDS011;454;53.254;10.400;2022-10-16T13:49:12;0.33;;;0.33;;
934;SDS011;454;53.254;10.400;2022-10-16T13:51:40;0.87;;;0.70;;
934;SDS011;454;53.254;10.400;2022-10-16T13:54:08;1.20;;;0.50;;
934;SDS011;454;53.254;10.400;2022-10-16T13:56:38;0.30;;;0.30;;
934;SDS011;454;53.254;10.400;2022-10-16T13:59:05;0.33;;;0.33;;
934;SDS011;454;53.254;10.400;2022-10-16T14:01:49;0.40;;;0.40;;
934;SDS011;454;53.254;10.400;2022-10-16T14:04:18;0.40;;;0.40;;
934;SDS011;454;53.254;10.400;2022-10-16T14:06:46;0.40;;;0.40;;
934;SDS011;454;53.254;10.400;2022-10-16T14:09:18;0.50;;;0.50;;
934;SDS011;454;53.254;10.400;2022-10-16T14:11:49;0.30;;;0.30;;
934;SDS011;454;53.254;10.400;2022-10-16T14:14:17;0.50;;;0.50;;
934;SDS011;454;53.254;10.400;2022-10-16T14:16:45;0.37;;;0.37;;
934;SDS011;454;53.254;10.400;2022-10-16T14:19:14;0.50;;;0.37;;
934;SDS011;454;53.254;10.400;2022-10-16T14:21:46;0.30;;;0.30;;
934;SDS011;454;53.254;10.400;2022-10-16T14:24:13;0.37;;;0.37;;
934;SDS011;454;53.254;10.400;2022-10-16T14:26:51;0.33;;;0.33;;
934;SDS011;454;53.254;10.400;2022-10-16T14:29:20;0.60;;;0.60;;
934;SDS011;454;53.254;10.400;2022-10-16T14:31:53;0.27;;;0.27;;
934;SDS011;454;53.254;10.400;2022-10-16T14:34:26;0.40;;;0.40;;
934;SDS011;454;53.254;10.400;2022-10-16T14:36:55;0.30;;;0.30;;
934;SDS011;454;53.254;10.400;2022-10-16T14:39:24;0.40;;;0.40;;
934;SDS011;454;53.254;10.400;2022-10-16T14:41:52;0.47;;;0.47;;
934;SDS011;454;53.254;10.400;2022-10-16T14:44:23;1.90;;;0.47;;
934;SDS011;454;53.254;10.400;2022-10-16T14:46:53;2.67;;;1.00;;
934;SDS011;454;53.254;10.400;2022-10-16T14:49:20;1.87;;;1.77;;
934;SDS011;454;53.254;10.400;2022-10-16T14:51:50;2.10;;;2.10;;
934;SDS011;454;53.254;10.400;2022-10-16T14:54:18;0.50;;;0.50;;
934;SDS011;454;53.254;10.400;2022-10-16T14:56:46;1.70;;;1.27;;
934;SDS011;454;53.254;10.400;2022-10-16T14:59:16;0.70;;;0.70;;
934;SDS011;454;53.254;10.400;2022-10-16T15:01:45;0.60;;;0.60;;
934;SDS011;454;53.254;10.400;2022-10-16T15:04:13;0.57;;;0.57;;
934;SDS011;454;53.254;10.400;2022-10-16T15:06:40;1.70;;;0.50;;
934;SDS011;454;53.254;10.400;2022-10-16T15:09:08;1.40;;;0.50;;
934;SDS011;454;53.254;10.400;2022-10-16T15:11:35;6.70;;;1.00;;
934;SDS011;454;53.254;10.400;2022-10-16T15:14:02;0.30;;;0.30;;
934;SDS011;454;53.254;10.400;2022-10-16T15:16:29;3.03;;;0.63;;
934;SDS011;454;53.254;10.400;2022-10-16T15:18:56;0.87;;;0.83;;
934;SDS011;454;53.254;10.400;2022-10-16T15:21:24;0.63;;;0.63;;
934;SDS011;454;53.254;10.400;2022-10-16T15:23:52;0.40;;;0.40;;
934;SDS011;454;53.254;10.400;2022-10-16T15:26:20;0.30;;;0.30;;
934;SDS011;454;53.254;10.400;2022-10-16T15:28:47;0.30;;;0.30;;
934;SDS011;454;53.254;10.400;2022-10-16T15:31:14;0.70;;;0.57;;
934;SDS011;454;53.254;10.400;2022-10-16T15:33:41;2.00;;;0.67;;
934;SDS011;454;53.254;10.400;2022-10-16T15:36:08;1.23;;;0.93;;
934;SDS011;454;53.254;10.400;2022-10-16T15:38:35;0.50;;;0.50;;
934;SDS011;454;53.254;10.400;2022-10-16T15:41:01;0.50;;;0.50;;
934;SDS011;454;53.254;10.400;2022-10-16T15:43:29;0.50;;;0.50;;
934;SDS011;454;53.254;10.400;2022-10-16T15:46:00;4.30;;;2.13;;
934;SDS011;454;53.254;10.400;2022-10-16T15:48:28;0.70;;;0.53;;
934;SDS011;454;53.254;10.400;2022-10-16T15:50:55;0.60;;;0.60;;
934;SDS011;454;53.254;10.400;2022-10-16T15:53:22;0.80;;;0.80;;
934;SDS011;454;53.254;10.400;2022-10-16T15:55:48;1.60;;;0.97;;
934;SDS011;454;53.254;10.400;2022-10-16T15:58:15;3.27;;;0.93;;
934;SDS011;454;53.254;10.400;2022-10-16T16:00:43;1.00;;;1.00;;
934;SDS011;454;53.254;10.400;2022-10-16T16:03:10;2.00;;;1.40;;
934;SDS011;454;53.254;10.400;2022-10-16T16:05:37;2.20;;;1.53;;
934;SDS011;454;53.254;10.400;2022-10-16T16:08:05;0.77;;;0.77;;
934;SDS011;454;53.254;10.400;2022-10-16T16:10:41;4.93;;;3.20;;
934;SDS011;454;53.254;10.400;2022-10-16T16:13:07;0.80;;;0.80;;
934;SDS011;454;53.254;10.400;2022-10-16T16:15:36;2.03;;;0.97;;
934;SDS011;454;53.254;10.400;2022-10-16T16:18:06;1.03;;;0.67;;
934;SDS011;454;53.254;10.400;2022-10-16T16:20:34;1.00;;;1.00;;
934;SDS011;454;53.254;10.400;2022-10-16T16:23:01;1.07;;;1.07;;
934;SDS011;454;53.254;10.400;2022-10-16T16:25:28;1.40;;;1.30;;
934;SDS011;454;53.254;10.400;2022-10-16T16:27:55;1.03;;;0.80;;
934;SDS011;454;53.254;10.400;2022-10-16T16:30:22;3.30;;;1.13;;
934;SDS011;454;53.254;10.400;2022-10-16T16:32:49;12.13;;;1.47;;
934;SDS011;454;53.254;10.400;2022-10-16T16:35:17;1.53;;;1.00;;
934;SDS011;454;53.254;10.400;2022-10-16T16:37:44;1.33;;;1.23;;
934;SDS011;454;53.254;10.400;2022-10-16T16:40:10;1.60;;;1.10;;
934;SDS011;454;53.254;10.400;2022-10-16T16:42:37;1.07;;;1.07;;
934;SDS011;454;53.254;10.400;2022-10-16T16:45:04;1.07;;;1.07;;
934;SDS011;454;53.254;10.400;2022-10-16T16:47:32;1.37;;;1.37;;
934;SDS011;454;53.254;10.400;2022-10-16T16:49:58;2.47;;;2.37;;
934;SDS011;454;53.254;10.400;2022-10-16T16:52:31;1.43;;;1.33;;
934;SDS011;454;53.254;10.400;2022-10-16T16:54:57;1.93;;;1.83;;
934;SDS011;454;53.254;10.400;2022-10-16T16:57:24;2.20;;;2.10;;
934;SDS011;454;53.254;10.400;2022-10-16T16:59:51;3.30;;;3.03;;
934;SDS011;454;53.254;10.400;2022-10-16T17:02:17;4.50;;;3.97;;
934;SDS011;454;53.254;10.400;2022-10-16T17:04:44;3.50;;;3.20;;
934;SDS011;454;53.254;10.400;2022-10-16T17:07:11;2.00;;;1.90;;
934;SDS011;454;53.254;10.400;2022-10-16T17:09:39;2.20;;;2.10;;
934;SDS011;454;53.254;10.400;2022-10-16T17:12:05;1.90;;;1.80;;
934;SDS011;454;53.254;10.400;2022-10-16T17:14:32;1.73;;;1.43;;
934;SDS011;454;53.254;10.400;2022-10-16T17:16:59;1.53;;;1.43;;
934;SDS011;454;53.254;10.400;2022-10-16T17:19:26;1.57;;;1.47;;
934;SDS011;454;53.254;10.400;2022-10-16T17:21:52;2.33;;;1.53;;
934;SDS011;454;53.254;10.400;2022-10-16T17:24:19;2.03;;;1.93;;
934;SDS011;454;53.254;10.400;2022-10-16T17:26:48;1.37;;;1.37;;
934;SDS011;454;53.254;10.400;2022-10-16T17:29:15;2.10;;;2.00;;
934;SDS011;454;53.254;10.400;2022-10-16T17:31:43;1.93;;;1.83;;
934;SDS011;454;53.254;10.400;2022-10-16T17:34:10;4.70;;;2.50;;
934;SDS011;454;53.254;10.400;2022-10-16T17:36:37;3.10;;;1.83;;
934;SDS011;454;53.254;10.400;2022-10-16T17:39:09;1.87;;;1.77;;
934;SDS011;454;53.254;10.400;2022-10-16T17:41:37;1.43;;;1.43;;
934;SDS011;454;53.254;10.400;2022-10-16T17:44:06;2.93;;;2.83;;
934;SDS011;454;53.254;10.400;2022-10-16T17:46:33;3.27;;;1.57;;
934;SDS011;454;53.254;10.400;2022-10-16T17:49:00;1.50;;;1.50;;
934;SDS011;454;53.254;10.400;2022-10-16T17:51:28;2.70;;;1.90;;
934;SDS011;454;53.254;10.400;2022-10-16T17:53:57;1.23;;;1.23;;
934;SDS011;454;53.254;10.400;2022-10-16T17:56:25;1.63;;;1.63;;
934;SDS011;454;53.254;10.400;2022-10-16T17:58:52;1.47;;;1.47;;
934;SDS011;454;53.254;10.400;2022-10-16T18:01:22;1.63;;;1.63;;
934;SDS011;454;53.254;10.400;2022-10-16T18:03:50;2.00;;;2.00;;
934;SDS011;454;53.254;10.400;2022-10-16T18:06:19;6.00;;;1.97;;
934;SDS011;454;53.254;10.400;2022-10-16T18:08:46;3.67;;;3.47;;
934;SDS011;454;53.254;10.400;2022-10-16T18:11:13;22.63;;;3.23;;
934;SDS011;454;53.254;10.400;2022-10-16T18:13:39;3.20;;;3.00;;
934;SDS011;454;53.254;10.400;2022-10-16T18:16:07;2.00;;;2.00;;
934;SDS011;454;53.254;10.400;2022-10-16T18:18:37;2.67;;;2.57;;
934;SDS011;454;53.254;10.400;2022-10-16T18:21:06;2.47;;;2.37;;
934;SDS011;454;53.254;10.400;2022-10-16T18:23:34;2.53;;;2.17;;
934;SDS011;454;53.254;10.400;2022-10-16T18:26:02;2.87;;;2.67;;
934;SDS011;454;53.254;10.400;2022-10-16T18:28:29;3.00;;;2.80;;
934;SDS011;454;53.254;10.400;2022-10-16T18:30:56;3.53;;;3.33;;
934;SDS011;454;53.254;10.400;2022-10-16T18:33:23;5.00;;;2.70;;
934;SDS011;454;53.254;10.400;2022-10-16T18:35:52;5.35;;;2.53;;
934;SDS011;454;53.254;10.400;2022-10-16T18:38:19;9.37;;;3.00;;
934;SDS011;454;53.254;10.400;2022-10-16T18:40:46;2.43;;;2.33;;
934;SDS011;454;53.254;10.400;2022-10-16T18:43:12;3.23;;;3.03;;
934;SDS011;454;53.254;10.400;2022-10-16T18:45:39;3.55;;;3.38;;
934;SDS011;454;53.254;10.400;2022-10-16T18:48:06;8.23;;;5.03;;
934;SDS011;454;53.254;10.400;2022-10-16T18:50:33;3.80;;;3.47;;
934;SDS011;454;53.254;10.400;2022-10-16T18:53:01;4.20;;;3.90;;
934;SDS011;454;53.254;10.400;2022-10-16T18:55:29;3.60;;;3.40;;
934;SDS011;454;53.254;10.400;2022-10-16T18:57:58;3.70;;;3.40;;
934;SDS011;454;53.254;10.400;2022-10-16T19:00:25;4.77;;;3.67;;
934;SDS011;454;53.254;10.400;2022-10-16T19:02:52;3.88;;;3.42;;
934;SDS011;454;53.254;10.400;2022-10-16T19:05:18;5.95;;;4.35;;
934;SDS011;454;53.254;10.400;2022-10-16T19:07:45;6.90;;;3.78;;
934;SDS011;454;53.254;10.400;2022-10-16T19:10:14;4.32;;;4.05;;
934;SDS011;454;53.254;10.400;2022-10-16T19:12:41;4.97;;;4.63;;
934;SDS011;454;53.254;10.400;2022-10-16T19:15:08;2.60;;;2.47;;
934;SDS011;454;53.254;10.400;2022-10-16T19:17:35;5.77;;;5.33;;
934;SDS011;454;53.254;10.400;2022-10-16T19:20:03;3.30;;;2.97;;
934;SDS011;454;53.254;10.400;2022-10-16T19:22:31;2.97;;;2.60;;
934;SDS011;454;53.254;10.400;2022-10-16T19:25:17;3.00;;;2.75;;
934;SDS011;454;53.254;10.400;2022-10-16T19:27:46;2.97;;;2.77;;
934;SDS011;454;53.254;10.400;2022-10-16T19:30:13;5.80;;;2.85;;
934;SDS011;454;53.254;10.400;2022-10-16T19:32:40;1.75;;;1.65;;
934;SDS011;454;53.254;10.400;2022-10-16T19:35:07;3.33;;;3.20;;
934;SDS011;454;53.254;10.400;2022-10-16T19:37:34;4.97;;;3.80;;
934;SDS011;454;53.254;10.400;2022-10-16T19:40:01;4.47;;;3.45;;
934;SDS011;454;53.254;10.400;2022-10-16T19:42:30;3.83;;;3.63;;
934;SDS011;454;53.254;10.400;2022-10-16T19:44:57;3.93;;;2.93;;
934;SDS011;454;53.254;10.400;2022-10-16T19:47:24;4.03;;;3.70;;
934;SDS011;454;53.254;10.400;2022-10-16T19:49:50;4.70;;;4.40;;